Time;durP1;ratioP1;P1;durP2;ratioP2;P2;SDS_P1;SDS_P2;PMS_P1;PMS_P2;Temp;Humidity;BMP_temperature;BMP_pressure;BME280_temperature;BME280_humidity;BME280_pressure;Samples;Min_cycle;Max_cycle;Signal;HPM_P1;HPM_P2
2021/04/01 00:00:28;;;;;;;79.03;33.00;;;;;;;13.94;55.32;101941.69;5060040;28;20062;-73
2021/04/01 00:02:54;;;;;;;83.00;33.53;;;;;;;13.97;54.56;101946.66;5054097;28;20624;-73
2021/04/01 00:05:25;;;;;;;76.05;32.03;;;;;;;13.99;54.87;101939.44;5052943;28;20104;-73
2021/04/01 00:07:51;;;;;;;75.97;31.30;;;;;;;14.04;54.37;101939.03;5063706;28;20539;-73
2021/04/01 00:10:21;;;;;;;78.35;31.92;;;;;;;14.08;54.53;101939.59;5055830;28;20481;-73
2021/04/01 00:12:47;;;;;;;77.72;30.35;;;;;;;14.10;54.73;101942.91;5064946;28;20062;-73
2021/04/01 00:15:14;;;;;;;74.95;31.13;;;;;;;14.04;54.51;101934.59;5059613;28;20067;-73
2021/04/01 00:17:41;;;;;;;76.88;30.83;;;;;;;14.02;55.03;101933.91;5067418;28;20052;-73
2021/04/01 00:20:10;;;;;;;84.85;31.98;;;;;;;14.00;54.97;101927.13;5058458;28;20462;-73
2021/04/01 00:22:37;;;;;;;76.45;29.63;;;;;;;14.02;54.81;101941.00;5043106;28;20080;-73
2021/04/01 00:25:06;;;;;;;82.95;35.17;;;;;;;13.93;55.61;101933.91;5056657;28;20063;-73
2021/04/01 00:27:32;;;;;;;87.65;37.45;;;;;;;13.87;55.83;101929.22;5039067;28;20049;-73
2021/04/01 00:29:58;;;;;;;101.55;43.88;;;;;;;13.87;55.48;101934.47;5047493;28;20056;-73
2021/04/01 00:32:24;;;;;;;103.90;41.80;;;;;;;13.79;55.78;101919.38;5040331;28;20056;-73
2021/04/01 00:34:50;;;;;;;91.45;37.15;;;;;;;13.81;55.38;101920.06;5044487;28;20048;-73
2021/04/01 00:37:16;;;;;;;86.05;35.38;;;;;;;13.87;56.02;101922.13;5038988;28;20051;-73
2021/04/01 00:39:42;;;;;;;82.65;34.38;;;;;;;13.87;55.50;101919.47;5046792;28;20405;-73
2021/04/01 00:42:09;;;;;;;84.50;32.20;;;;;;;13.85;56.20;101927.53;5061337;28;20052;-73
2021/04/01 00:44:35;;;;;;;78.45;31.90;;;;;;;13.82;56.31;101921.72;5058799;28;20443;-73
2021/04/01 00:47:08;;;;;;;75.07;33.10;;;;;;;13.82;55.86;101927.81;5049105;28;20146;-73
2021/04/01 00:49:39;;;;;;;83.18;30.00;;;;;;;13.83;55.03;101926.00;5045627;28;20068;-73
2021/04/01 00:52:06;;;;;;;76.70;31.27;;;;;;;13.87;55.13;101921.28;5066634;28;20052;-75
2021/04/01 00:54:33;;;;;;;77.63;31.85;;;;;;;13.87;55.50;101921.28;5043265;28;20056;-76
2021/04/01 00:57:00;;;;;;;74.72;31.33;;;;;;;13.86;56.23;101923.13;5054757;28;20496;-76
2021/04/01 00:59:28;;;;;;;74.80;32.58;;;;;;;13.82;56.14;101917.28;5051813;28;20052;-74
2021/04/01 01:02:04;;;;;;;80.55;31.23;;;;;;;13.85;56.46;101918.78;5053123;28;20087;-74
2021/04/01 01:04:32;;;;;;;76.68;31.02;;;;;;;13.76;56.50;101920.47;5057533;28;20099;-74
2021/04/01 01:06:59;;;;;;;82.60;32.67;;;;;;;13.78;55.93;101915.03;5052338;28;20052;-74
2021/04/01 01:09:26;;;;;;;78.10;31.88;;;;;;;13.79;55.66;101909.63;5064126;28;20471;-74
2021/04/01 01:11:52;;;;;;;75.15;30.23;;;;;;;13.83;55.85;101902.28;5056978;28;20048;-74
2021/04/01 01:14:18;;;;;;;77.35;32.97;;;;;;;13.89;55.73;101903.53;5060256;28;20074;-74
2021/04/01 01:16:44;;;;;;;70.88;32.30;;;;;;;13.89;56.43;101903.53;5045485;28;20843;-74
2021/04/01 01:19:11;;;;;;;75.60;31.13;;;;;;;13.85;56.35;101900.34;5062728;28;20461;-74
2021/04/01 01:21:37;;;;;;;72.20;32.30;;;;;;;13.75;57.39;101895.06;5039848;28;20045;-73
2021/04/01 01:24:11;;;;;;;79.47;31.65;;;;;;;13.76;57.97;101894.13;5043645;28;20069;-73
2021/04/01 01:26:39;;;;;;;78.28;31.00;;;;;;;13.65;57.04;101881.06;5053577;28;20052;-73
2021/04/01 01:29:06;;;;;;;73.17;31.40;;;;;;;13.70;56.18;101880.66;5040099;28;20056;-73
2021/04/01 01:31:32;;;;;;;74.15;30.50;;;;;;;13.76;56.28;101882.72;5058718;28;20290;-73
2021/04/01 01:33:58;;;;;;;72.70;30.65;;;;;;;13.76;56.19;101867.75;5038981;28;20127;-74
2021/04/01 01:36:24;;;;;;;77.82;31.33;;;;;;;13.77;56.00;101858.03;5057242;28;20063;-73
2021/04/01 01:38:50;;;;;;;70.00;29.45;;;;;;;13.80;56.82;101855.94;5037654;28;20052;-73
2021/04/01 01:41:16;;;;;;;75.30;30.13;;;;;;;13.77;56.62;101856.22;5054721;28;20460;-73
2021/04/01 01:43:43;;;;;;;74.95;32.47;;;;;;;13.67;57.53;101847.50;5064366;28;20488;-73
2021/04/01 01:46:09;;;;;;;73.95;30.48;;;;;;;13.69;57.56;101861.38;5045639;28;20056;-73
2021/04/01 01:48:35;;;;;;;79.03;29.67;;;;;;;13.61;57.03;101856.78;5044157;28;20060;-74
2021/04/01 01:51:02;;;;;;;69.78;30.45;;;;;;;13.63;57.97;101856.66;5039664;28;20067;-73
2021/04/01 01:53:28;;;;;;;73.53;31.42;;;;;;;13.58;57.53;101858.88;5052410;28;20053;-74
2021/04/01 01:55:54;;;;;;;76.85;30.48;;;;;;;13.60;57.77;101862.19;5052381;28;20049;-74
2021/04/01 01:58:22;;;;;;;69.43;29.02;;;;;;;13.56;57.71;101850.28;5049670;28;20106;-74
2021/04/01 02:00:53;;;;;;;69.68;29.25;;;;;;;13.65;57.59;101873.16;5047286;28;20132;-74
2021/04/01 02:03:19;;;;;;;83.50;34.60;;;;;;;13.47;57.31;101882.78;5045568;28;20179;-74
2021/04/01 02:05:45;;;;;;;85.03;32.65;;;;;;;13.45;56.41;101886.34;5051346;28;20049;-74
2021/04/01 02:08:13;;;;;;;89.57;32.92;;;;;;;13.47;56.80;101899.41;5035199;28;20068;-74
2021/04/01 02:10:50;;;;;;;83.88;32.75;;;;;;;13.50;56.56;101907.03;5044488;28;20090;-73
2021/04/01 02:13:23;;;;;;;85.68;33.08;;;;;;;13.51;56.82;101900.78;5049535;28;20049;-73
2021/04/01 02:15:51;;;;;;;89.22;33.92;;;;;;;13.59;56.43;101906.19;5057073;28;20387;-74
2021/04/01 02:18:20;;;;;;;91.70;35.72;;;;;;;13.60;57.20;101905.25;5043891;28;20297;-74
2021/04/01 02:20:49;;;;;;;86.90;33.90;;;;;;;13.54;57.22;101903.13;5059772;28;20052;-74
2021/04/01 02:23:33;;;;;;;88.18;35.08;;;;;;;13.62;57.04;101905.06;5056637;28;20053;-74
2021/04/01 02:26:01;;;;;;;79.63;33.55;;;;;;;13.64;56.93;101909.25;5056065;28;20611;-74
2021/04/01 02:28:28;;;;;;;84.90;33.07;;;;;;;13.61;56.96;101887.59;5057969;28;20048;-74
2021/04/01 02:31:00;;;;;;;82.07;33.58;;;;;;;13.63;57.52;101902.31;5042430;28;20499;-74
2021/04/01 02:33:28;;;;;;;85.82;33.08;;;;;;;13.62;57.77;101912.97;5055286;28;20056;-73
2021/04/01 02:35:55;;;;;;;89.55;33.22;;;;;;;13.60;57.74;101907.03;5033799;28;20103;-74
2021/04/01 02:38:22;;;;;;;89.18;35.33;;;;;;;13.53;57.65;101909.38;5061496;28;20059;-74
2021/04/01 02:40:50;;;;;;;88.37;35.07;;;;;;;13.58;57.39;101909.81;5053015;28;20052;-74
2021/04/01 02:43:23;;;;;;;100.07;36.47;;;;;;;13.54;56.30;101897.03;5061491;28;20052;-74
2021/04/01 02:45:49;;;;;;;98.05;38.05;;;;;;;13.58;56.11;101904.53;5051704;28;20041;-74
2021/04/01 02:48:15;;;;;;;99.35;35.67;;;;;;;13.58;56.19;101912.44;5042957;28;20055;-76
2021/04/01 02:50:41;;;;;;;101.20;36.75;;;;;;;13.55;56.43;101907.44;5054844;28;20052;-73
2021/04/01 02:53:07;;;;;;;94.25;35.00;;;;;;;13.59;56.73;101929.91;5050653;28;20059;-74
2021/04/01 02:55:33;;;;;;;104.35;38.00;;;;;;;13.50;56.87;101922.84;5057244;28;20074;-73
2021/04/01 02:57:59;;;;;;;105.47;37.28;;;;;;;13.52;56.21;101925.34;5048451;28;20057;-73
2021/04/01 03:00:30;;;;;;;109.30;38.63;;;;;;;13.48;56.10;101919.50;5065471;28;20365;-74
2021/04/01 03:03:01;;;;;;;110.35;40.05;;;;;;;13.54;55.34;101926.03;5043820;28;20130;-73
2021/04/01 03:05:27;;;;;;;122.10;42.28;;;;;;;13.51;55.52;101934.22;5044588;28;20487;-74
2021/04/01 03:07:53;;;;;;;107.82;39.40;;;;;;;13.48;55.58;101922.13;5055316;28;20116;-74
2021/04/01 03:10:19;;;;;;;105.13;39.80;;;;;;;13.55;55.79;101923.25;5046694;28;20574;-74
2021/04/01 03:12:45;;;;;;;118.38;41.17;;;;;;;13.51;55.83;101923.69;5046760;28;20053;-74
2021/04/01 03:15:12;;;;;;;101.63;39.78;;;;;;;13.51;55.95;101929.78;5042120;28;20481;-74
2021/04/01 03:17:40;;;;;;;105.05;40.08;;;;;;;13.46;56.80;101934.63;5054954;28;20568;-73
2021/04/01 03:20:08;;;;;;;107.45;39.90;;;;;;;13.40;56.61;101930.72;5049325;28;20048;-74
2021/04/01 03:22:35;;;;;;;115.65;40.65;;;;;;;13.29;57.32;101927.38;5052095;28;20064;-74
2021/04/01 03:25:04;;;;;;;106.60;39.65;;;;;;;13.23;56.38;101940.13;5064625;28;20053;-74
2021/04/01 03:27:30;;;;;;;112.80;40.83;;;;;;;13.22;57.50;101932.38;5058704;28;20525;-74
2021/04/01 03:30:09;;;;;;;102.45;38.58;;;;;;;13.15;57.23;101932.09;5043560;28;20052;-74
2021/04/01 03:32:39;;;;;;;108.72;39.88;;;;;;;13.10;57.83;101930.81;5037432;28;20064;-73
2021/04/01 03:35:08;;;;;;;108.00;40.70;;;;;;;13.05;57.16;101929.44;5047546;28;20057;-73
2021/04/01 03:37:34;;;;;;;;;;;;;;;13.02;57.70;101934.13;5042128;28;20198;-73
2021/04/01 03:40:00;;;;;;;105.40;40.38;;;;;;;12.96;57.36;101924.97;5047642;28;19920;-73
2021/04/01 03:42:27;;;;;;;108.18;40.25;;;;;;;12.95;56.13;101920.66;5045977;28;20079;-73
2021/04/01 03:44:55;;;;;;;104.72;37.25;;;;;;;12.97;55.92;101918.72;5056373;28;20048;-73
2021/04/01 03:47:21;;;;;;;109.15;37.15;;;;;;;13.00;55.39;101925.53;5052148;28;20052;-73
2021/04/01 03:49:47;;;;;;;114.70;38.90;;;;;;;12.98;55.51;101917.75;5042660;28;20048;-73
2021/04/01 03:52:13;;;;;;;115.15;40.25;;;;;;;13.03;56.40;101919.97;5067458;28;20106;-73
2021/04/01 03:54:42;;;;;;;102.82;39.42;;;;;;;12.99;56.19;101905.41;5061181;28;20055;-73
2021/04/01 03:57:08;;;;;;;109.88;38.88;;;;;;;12.96;56.36;101914.44;5067930;28;20178;-73
2021/04/01 04:02:33;;;;;;;110.05;41.25;;;;;;;12.71;57.56;101926.28;5040233;28;20103;-73
2021/04/01 04:15:19;;;;;;;99.68;38.47;;;;;;;12.38;57.65;101930.84;5058671;28;20053;-73
2021/04/01 04:17:45;;;;;;;101.32;37.30;;;;;;;12.34;58.57;101926.81;5041402;28;20079;-73
2021/04/01 04:20:13;;;;;;;106.22;38.15;;;;;;;12.27;58.65;101930.94;5064926;28;20060;-73
2021/04/01 04:22:40;;;;;;;103.18;38.08;;;;;;;12.27;57.56;101926.50;5047249;28;20048;-73
2021/04/01 04:25:08;;;;;;;109.50;37.92;;;;;;;12.24;57.84;101923.31;5061197;28;20075;-73
2021/04/01 04:27:48;;;;;;;111.38;39.97;;;;;;;12.23;58.11;101919.84;5052284;28;20060;-73
2021/04/01 04:30:15;;;;;;;99.53;36.88;;;;;;;12.23;57.73;101926.88;5052826;28;20048;-73
2021/04/01 04:32:41;;;;;;;106.13;38.05;;;;;;;12.14;58.55;101925.88;5064738;28;20161;-73
2021/04/01 04:35:08;;;;;;;104.43;37.88;;;;;;;12.14;59.09;101930.31;5057488;28;20060;-74
2021/04/01 04:37:34;;;;;;;102.22;38.20;;;;;;;12.09;58.01;101935.94;5046585;28;20052;-74
2021/04/01 04:40:00;;;;;;;103.15;38.70;;;;;;;12.01;58.62;101926.06;5044777;28;20386;-74
2021/04/01 04:42:26;;;;;;;109.07;39.63;;;;;;;12.00;58.81;101934.94;5054063;28;20479;-73
2021/04/01 04:44:52;;;;;;;103.03;38.35;;;;;;;11.94;59.23;101948.59;5053143;28;20052;-73
2021/04/01 04:47:18;;;;;;;118.35;41.58;;;;;;;11.84;59.69;101955.56;5040220;28;20060;-73
2021/04/01 04:49:44;;;;;;;108.60;41.20;;;;;;;11.74;59.91;101952.84;5049038;28;20106;-74
2021/04/01 04:52:10;;;;;;;104.90;39.45;;;;;;;11.72;59.44;101949.50;5047026;28;20581;-74
2021/04/01 04:54:37;;;;;;;101.38;38.75;;;;;;;11.68;59.82;101956.81;5058128;28;20048;-74
2021/04/01 04:57:12;;;;;;;112.65;40.00;;;;;;;11.71;59.44;101958.34;5037864;28;20163;-74
2021/04/01 05:00:03;;;;;;;110.35;38.78;;;;;;;11.74;59.58;101952.00;5055543;28;20048;-74
2021/04/01 05:05:09;;;;;;;118.82;42.22;;;;;;;11.71;60.08;101936.50;5056459;28;20067;-74
2021/04/01 05:07:36;;;;;;;114.93;41.33;;;;;;;11.73;59.56;101937.19;5050917;28;20049;-74
2021/04/01 05:10:02;;;;;;;115.32;41.05;;;;;;;11.79;59.14;101953.28;5046079;28;20063;-74
2021/04/01 05:12:28;;;;;;;107.72;40.75;;;;;;;11.72;59.79;101952.13;5065183;28;20111;-74
2021/04/01 05:14:54;;;;;;;117.93;41.53;;;;;;;11.73;59.66;101947.72;5054549;28;20482;-74
2021/04/01 05:17:23;;;;;;;116.80;40.83;;;;;;;11.69;59.40;101952.38;5057076;28;20139;-74
2021/04/01 05:19:54;;;;;;;113.03;39.05;;;;;;;11.67;60.14;101952.50;5044224;28;21982;-74
2021/04/01 05:24:46;;;;;;;114.40;40.97;;;;;;;11.58;60.81;101952.41;5052733;28;20044;-74
2021/04/01 05:27:20;;;;;;;104.70;39.75;;;;;;;11.51;60.57;101957.34;5056940;28;20711;-74
2021/04/01 05:29:58;;;;;;;103.05;39.25;;;;;;;11.47;60.48;101954.13;5046026;28;20477;-74
2021/04/01 05:32:34;;;;;;;113.63;40.88;;;;;;;11.42;61.04;101952.84;5052602;28;20125;-74
2021/04/01 05:35:04;;;;;;;103.90;38.08;;;;;;;11.41;61.06;101962.50;5060928;28;20067;-72
2021/04/01 05:37:31;;;;;;;113.78;40.58;;;;;;;11.41;61.48;101972.19;5041494;28;20415;-75
2021/04/01 05:39:57;;;;;;;104.72;38.67;;;;;;;11.39;60.19;101971.47;5066008;28;20117;-73
2021/04/01 05:42:28;;;;;;;101.88;38.25;;;;;;;11.33;61.36;101977.22;5046062;28;20485;-73
2021/04/01 05:45:11;;;;;;;120.85;41.80;;;;;;;11.24;61.22;101976.16;5044280;28;20049;-74
2021/04/01 05:47:45;;;;;;;116.72;43.08;;;;;;;11.21;62.15;101976.41;5039858;28;20114;-73
2021/04/01 06:03:53;;;;;;;102.88;40.15;;;;;;;11.08;62.79;102003.63;5057110;28;20044;-74
2021/04/01 06:06:29;;;;;;;103.97;38.75;;;;;;;11.10;63.43;102007.94;5059601;28;20063;-74
2021/04/01 06:09:00;;;;;;;109.88;38.67;;;;;;;11.06;63.53;102000.28;5046131;28;20478;-74
2021/04/01 06:11:26;;;;;;;114.50;39.83;;;;;;;11.09;63.60;102022.84;5052742;28;20480;-74
2021/04/01 06:14:11;;;;;;;114.30;41.40;;;;;;;11.10;64.18;102007.94;5051865;28;20109;-73
2021/04/01 06:16:45;;;;;;;102.10;38.08;;;;;;;11.19;63.44;102017.69;5044259;28;20099;-75
2021/04/01 06:19:15;;;;;;;114.82;41.70;;;;;;;11.21;64.00;102026.28;5053517;28;20065;-73
2021/04/01 06:21:47;;;;;;;109.75;41.20;;;;;;;11.25;63.48;102030.34;5055144;28;20155;-75
2021/04/01 06:24:27;;;;;;;109.35;40.67;;;;;;;11.32;63.74;102035.97;5044306;28;20906;-72
2021/04/01 06:28:09;;;;;;;113.30;38.60;;;;;;;11.37;63.58;102032.03;5046405;28;20429;-72
2021/04/01 06:33:08;;;;;;;95.13;35.58;;;;;;;11.55;63.33;102029.72;5045371;28;20137;-73
2021/04/01 06:35:42;;;;;;;119.75;37.85;;;;;;;11.61;62.87;102023.13;5062988;28;20472;-74
2021/04/01 06:40:55;;;;;;;104.38;36.30;;;;;;;11.78;63.61;102025.22;5061572;28;20513;-73
2021/04/01 06:43:55;;;;;;;118.10;37.78;;;;;;;11.87;62.94;102042.88;5052711;28;20578;-73
2021/04/01 06:46:25;;;;;;;121.20;39.85;;;;;;;11.93;61.76;102043.38;5047433;28;20117;-74
2021/04/01 06:52:09;;;;;;;130.43;44.88;;;;;;;12.06;62.14;102039.59;5053075;28;20052;-73
2021/04/01 06:54:47;;;;;;;143.85;46.72;;;;;;;12.14;62.05;102043.41;5052307;28;20048;-73
2021/04/01 06:57:36;;;;;;;133.95;45.20;;;;;;;12.17;61.92;102035.25;5044287;28;20061;-74
2021/04/01 07:00:57;;;;;;;136.15;46.33;;;;;;;12.24;61.47;102036.41;5063268;28;20055;-74
2021/04/01 07:11:20;;;;;;;146.70;49.50;;;;;;;12.39;60.88;102024.63;5041285;28;20114;-75
2021/04/01 07:13:51;;;;;;;153.88;50.97;;;;;;;12.51;61.24;102043.81;5048382;28;20352;-75
2021/04/01 07:16:31;;;;;;;150.13;49.15;;;;;;;12.53;60.70;102030.53;5061004;28;20132;-74
2021/04/01 07:49:03;;;;;;;159.30;49.33;;;;;;;13.09;59.23;102087.19;5048066;28;20052;-74
2021/04/01 07:54:24;;;;;;;163.70;54.55;;;;;;;13.19;59.12;102090.69;5055790;28;20488;-74
2021/04/01 08:05:36;;;;;;;163.98;55.47;;;;;;;13.42;58.90;102102.75;5053835;28;20048;-74
2021/04/01 08:08:08;;;;;;;169.90;56.65;;;;;;;13.48;59.17;102100.56;5060649;28;20056;-74
2021/04/01 08:10:44;;;;;;;167.98;55.47;;;;;;;13.52;58.48;102091.41;5056701;28;20793;-74
2021/04/01 08:13:14;;;;;;;168.88;56.80;;;;;;;13.60;58.86;102095.06;5060652;28;20056;-74
2021/04/01 08:15:53;;;;;;;169.68;56.78;;;;;;;13.61;58.03;102090.59;5041290;28;20049;-74
2021/04/01 08:18:25;;;;;;;168.35;56.83;;;;;;;13.72;57.95;102111.59;5061121;28;20097;-74
2021/04/01 08:20:59;;;;;;;171.63;56.28;;;;;;;13.73;56.22;102093.97;5046014;28;20059;-74
2021/04/01 08:23:52;;;;;;;157.10;53.33;;;;;;;13.89;55.93;102102.16;5060257;28;20792;-74
2021/04/01 08:26:59;;;;;;;154.43;53.25;;;;;;;13.97;55.03;102096.19;5045360;28;20758;-74
2021/04/01 08:36:01;;;;;;;174.80;60.15;;;;;;;14.32;53.97;102103.56;5056729;28;20061;-73
2021/04/01 08:38:48;;;;;;;168.18;58.17;;;;;;;14.41;53.27;102094.81;5045728;28;20080;-74
2021/04/01 08:41:34;;;;;;;165.05;56.88;;;;;;;14.54;52.83;102105.06;5053089;28;20063;-74
2021/04/01 08:44:51;;;;;;;165.25;58.13;;;;;;;14.74;52.99;102102.44;5059582;28;20045;-74
2021/04/01 08:47:58;;;;;;;173.40;60.13;;;;;;;14.89;52.82;102101.00;5049033;28;20044;-74
2021/04/01 08:50:38;;;;;;;165.52;57.53;;;;;;;15.01;51.76;102101.66;5055958;28;20159;-73
2021/04/01 08:53:10;;;;;;;163.85;58.50;;;;;;;15.09;50.87;102106.22;5056347;28;20053;-74
2021/04/01 08:56:36;;;;;;;174.73;61.00;;;;;;;15.22;51.22;102096.16;5068077;28;20044;-74
2021/04/01 08:59:24;;;;;;;168.30;61.08;;;;;;;15.43;50.40;102102.06;5037785;28;20111;-74
2021/04/01 09:01:55;;;;;;;162.02;59.10;;;;;;;15.59;50.19;102108.50;5053592;28;20079;-74
2021/04/01 09:04:26;;;;;;;159.05;57.00;;;;;;;15.68;49.15;102101.50;5049240;28;20063;-74
2021/04/01 09:06:59;;;;;;;174.38;61.53;;;;;;;15.78;49.37;102113.72;5049639;28;20048;-74
2021/04/01 09:09:33;;;;;;;164.43;59.33;;;;;;;15.88;49.00;102113.66;5056264;28;20057;-74
2021/04/01 09:12:16;;;;;;;160.88;60.10;;;;;;;16.06;48.72;102108.38;5059927;28;20075;-74
2021/04/01 09:14:49;;;;;;;162.30;59.60;;;;;;;16.15;48.72;102112.75;5050029;28;20060;-74
2021/04/01 09:17:16;;;;;;;173.32;60.47;;;;;;;16.22;47.78;102118.28;5059260;28;20949;-74
2021/04/01 09:19:44;;;;;;;159.90;59.42;;;;;;;16.37;47.97;102127.34;5063238;28;20052;-76
2021/04/01 09:22:31;;;;;;;158.18;58.00;;;;;;;16.52;47.60;102124.97;5060403;28;20088;-74
2021/04/01 09:25:03;;;;;;;158.45;55.97;;;;;;;16.65;47.07;102129.88;5059163;28;20048;-74
2021/04/01 09:27:29;;;;;;;165.52;57.95;;;;;;;16.73;46.44;102123.81;5054186;28;20056;-74
2021/04/01 09:30:06;;;;;;;151.10;56.17;;;;;;;16.82;46.16;102122.91;5045247;28;20057;-74
2021/04/01 09:32:34;;;;;;;157.38;60.15;;;;;;;16.91;45.93;102135.19;5051858;28;20549;-74
2021/04/01 09:35:02;;;;;;;151.38;58.20;;;;;;;16.96;45.95;102130.28;5052703;28;20551;-74
2021/04/01 09:37:28;;;;;;;149.57;57.00;;;;;;;17.07;45.92;102134.50;5065092;28;20053;-75
2021/04/01 09:39:55;;;;;;;152.02;60.83;;;;;;;17.14;45.03;102145.28;5053657;28;20467;-75
2021/04/01 09:42:21;;;;;;;148.35;59.42;;;;;;;17.30;45.38;102150.66;5050324;28;20439;-74
2021/04/01 09:44:54;;;;;;;156.90;62.10;;;;;;;17.43;45.48;102144.94;5036905;28;20556;-75
2021/04/01 09:47:49;;;;;;;157.93;61.42;;;;;;;17.41;45.40;102146.09;5044772;28;20575;-75
2021/04/01 09:50:16;;;;;;;160.15;61.80;;;;;;;17.44;45.07;102146.59;5057969;28;20107;-75
2021/04/01 09:53:00;;;;;;;147.80;62.63;;;;;;;17.58;45.27;102150.44;5053501;28;20060;-75
2021/04/01 09:55:40;;;;;;;152.20;61.70;;;;;;;17.64;45.42;102151.63;5045616;28;20052;-75
2021/04/01 09:58:36;;;;;;;155.32;62.25;;;;;;;17.75;45.31;102154.00;5062986;28;20048;-75
2021/04/01 10:01:26;;;;;;;138.73;57.38;;;;;;;17.92;45.54;102163.69;5052557;28;20056;-75
2021/04/01 10:03:54;;;;;;;140.80;55.70;;;;;;;17.89;44.43;102163.19;5051709;28;20052;-75
2021/04/01 10:06:36;;;;;;;140.35;58.35;;;;;;;18.10;45.11;102158.25;5051253;28;20122;-75
2021/04/01 10:09:20;;;;;;;139.52;61.45;;;;;;;18.18;44.96;102162.75;5048611;28;20080;-75
2021/04/01 10:11:58;;;;;;;129.75;58.75;;;;;;;18.28;45.10;102165.25;5040209;28;20048;-75
2021/04/01 10:14:27;;;;;;;129.00;55.92;;;;;;;18.43;44.94;102168.09;5042802;28;20555;-75
2021/04/01 10:17:10;;;;;;;115.38;50.03;;;;;;;18.24;44.17;102169.25;5047991;28;20056;-75
2021/04/01 10:19:39;;;;;;;98.97;46.95;;;;;;;18.37;44.82;102173.06;5063836;28;20052;-75
2021/04/01 10:22:05;;;;;;;90.60;39.72;;;;;;;18.34;43.21;102170.72;5060269;28;20056;-74
2021/04/01 10:24:35;;;;;;;71.97;33.00;;;;;;;18.38;43.34;102171.22;5044995;28;20126;-74
2021/04/01 10:30:07;;;;;;;62.85;24.08;;;;;;;18.73;42.11;102169.25;5039616;28;20057;-75
2021/04/01 10:32:54;;;;;;;45.22;20.35;;;;;;;18.70;41.15;102174.88;5044433;28;20052;-74
2021/04/01 10:35:27;;;;;;;34.85;15.57;;;;;;;18.90;41.31;102175.41;5045221;28;20052;-75
2021/04/01 10:37:56;;;;;;;26.25;12.25;;;;;;;19.00;41.33;102180.56;5061554;28;20048;-75
2021/04/01 10:40:23;;;;;;;26.40;11.57;;;;;;;19.07;41.05;102174.38;5057381;28;20056;-74
2021/04/01 10:43:02;;;;;;;26.85;11.85;;;;;;;19.17;41.01;102177.69;5048716;28;20098;-74
2021/04/01 10:45:34;;;;;;;28.55;11.18;;;;;;;19.32;40.62;102182.28;5039413;28;20455;-74
2021/04/01 10:48:19;;;;;;;30.20;11.18;;;;;;;19.56;41.02;102186.69;5044328;28;20057;-74
2021/04/01 10:50:45;;;;;;;24.98;11.55;;;;;;;19.58;40.11;102181.19;5046126;28;20071;-76
2021/04/01 10:53:23;;;;;;;32.03;13.80;;;;;;;19.60;40.04;102185.34;5076151;28;20052;-75
2021/04/01 10:55:52;;;;;;;28.98;12.95;;;;;;;19.59;40.17;102181.03;5060294;28;20045;-75
2021/04/01 10:58:18;;;;;;;24.45;11.40;;;;;;;19.81;40.63;102186.59;5042340;28;20048;-75
2021/04/01 11:01:14;;;;;;;24.13;10.73;;;;;;;20.06;39.91;102193.47;5064471;28;20951;-75
2021/04/01 11:03:44;;;;;;;28.15;11.48;;;;;;;20.15;39.92;102194.25;5012956;28;20407;-75
2021/04/01 11:06:12;;;;;;;20.98;8.57;;;;;;;20.08;39.66;102190.63;5060881;28;20053;-75
2021/04/01 11:08:42;;;;;;;21.77;8.50;;;;;;;20.18;39.49;102199.22;5039877;28;20052;-75
2021/04/01 11:11:09;;;;;;;18.60;8.93;;;;;;;20.20;39.11;102193.72;5059025;28;20165;-75
2021/04/01 11:13:40;;;;;;;22.30;8.23;;;;;;;20.29;39.18;102190.81;5062304;28;20052;-75
2021/04/01 11:16:08;;;;;;;18.95;7.82;;;;;;;20.42;39.70;102194.72;5065367;28;20080;-75
2021/04/01 11:18:36;;;;;;;;;;;;;;;20.42;38.72;102198.19;5055809;28;20048;-79
2021/04/01 11:21:06;;;;;;;23.15;6.57;;;;;;;20.57;38.47;102194.78;5054408;28;19935;-76
2021/04/01 11:23:34;;;;;;;148.15;11.95;;;;;;;20.71;38.70;102197.50;5054072;28;20065;-75
2021/04/01 11:26:03;;;;;;;32.65;7.20;;;;;;;20.80;39.27;102198.25;5062514;28;20056;-75
2021/04/01 11:28:41;;;;;;;20.38;7.03;;;;;;;21.04;38.51;102205.19;5058787;28;20052;-75
2021/04/01 11:31:10;;;;;;;14.18;5.20;;;;;;;21.20;38.03;102206.03;5053370;28;20052;-75
2021/04/01 11:33:38;;;;;;;14.10;5.30;;;;;;;21.11;37.98;102208.81;5054733;28;20075;-75
2021/04/01 11:36:10;;;;;;;16.17;5.05;;;;;;;21.26;38.00;102214.13;5049323;28;20041;-76
2021/04/01 11:38:44;;;;;;;13.38;4.43;;;;;;;21.08;37.58;102214.47;5059189;28;20057;-75
2021/04/01 11:41:16;;;;;;;17.75;5.15;;;;;;;21.11;37.60;102211.47;5049141;28;20061;-74
2021/04/01 11:43:42;;;;;;;15.65;4.75;;;;;;;21.17;37.58;102215.25;5052773;28;20130;-74
2021/04/01 11:46:18;;;;;;;20.50;4.70;;;;;;;21.21;37.49;102215.69;5041981;28;20110;-74
2021/04/01 11:48:46;;;;;;;14.75;4.35;;;;;;;21.23;37.48;102224.34;5041469;28;20075;-75
2021/04/01 11:51:18;;;;;;;18.92;4.55;;;;;;;21.35;37.38;102211.38;5061647;28;20412;-75
2021/04/01 11:53:45;;;;;;;12.07;3.80;;;;;;;21.50;37.33;102220.22;5053310;28;20107;-73
2021/04/01 11:56:15;;;;;;;18.80;4.63;;;;;;;21.46;37.31;102217.13;5063882;28;20055;-73
2021/04/01 11:58:41;;;;;;;17.17;4.05;;;;;;;21.56;36.70;102221.34;5059306;28;20101;-74
2021/04/01 12:01:17;;;;;;;11.13;3.45;;;;;;;21.58;36.66;102219.31;5062704;28;20056;-73
2021/04/01 12:06:11;;;;;;;15.88;3.85;;;;;;;21.76;37.54;102217.09;5062044;28;20362;-73
2021/04/01 12:08:39;;;;;;;17.03;4.10;;;;;;;21.80;37.26;102225.56;5066390;28;20048;-74
2021/04/01 12:11:05;;;;;;;;;;;;;;;21.93;36.99;102223.03;5062243;28;20056;-75
2021/04/01 12:13:31;;;;;;;13.23;3.00;;;;;;;21.97;36.26;102224.31;5058299;28;20356;-75
2021/04/01 12:15:58;;;;;;;12.27;3.45;;;;;;;21.84;36.77;102224.16;5058252;28;20053;-74
2021/04/01 12:18:25;;;;;;;17.70;3.40;;;;;;;21.77;36.72;102220.56;5065346;28;20048;-75
2021/04/01 12:20:52;;;;;;;15.02;3.50;;;;;;;21.69;36.57;102217.00;5067308;28;20668;-74
2021/04/01 12:23:21;;;;;;;17.80;4.00;;;;;;;21.69;36.55;102225.00;5060028;28;20458;-74
2021/04/01 12:25:48;;;;;;;15.48;3.90;;;;;;;21.69;37.38;102224.19;5055967;28;20474;-74
2021/04/01 12:28:18;;;;;;;15.68;3.67;;;;;;;21.73;36.73;102218.28;5048296;28;20095;-74
2021/04/01 12:30:49;;;;;;;15.98;3.75;;;;;;;21.77;36.61;102223.25;5052962;28;20052;-75
2021/04/01 12:33:24;;;;;;;14.30;3.92;;;;;;;21.76;36.46;102222.44;5050497;28;20510;-74
2021/04/01 12:35:59;;;;;;;15.35;3.78;;;;;;;21.81;36.72;102227.19;5059292;28;20487;-74
2021/04/01 12:38:32;;;;;;;18.58;4.40;;;;;;;21.92;36.78;102224.88;5047487;28;20458;-75
2021/04/01 12:41:02;;;;;;;13.68;3.30;;;;;;;21.99;36.74;102234.81;5048292;28;20064;-74
2021/04/01 12:43:31;;;;;;;15.80;3.95;;;;;;;21.72;35.91;102232.66;5042600;28;20098;-74
2021/04/01 12:45:58;;;;;;;9.70;2.78;;;;;;;21.73;36.79;102223.59;5053802;28;20078;-74
2021/04/01 12:48:24;;;;;;;12.50;3.17;;;;;;;21.75;36.31;102238.63;5061755;28;20063;-74
2021/04/01 12:50:52;;;;;;;12.57;3.30;;;;;;;21.73;36.56;102236.16;5040642;28;20562;-74
2021/04/01 12:53:21;;;;;;;10.57;2.72;;;;;;;21.73;35.82;102234.28;5055254;28;20095;-73
2021/04/01 12:58:41;;;;;;;12.32;3.05;;;;;;;21.93;36.35;102233.72;5054082;28;20157;-74
2021/04/01 13:01:22;;;;;;;12.45;3.90;;;;;;;21.94;36.14;102237.22;5049969;28;20144;-73
2021/04/01 13:03:49;;;;;;;15.73;3.15;;;;;;;21.88;35.67;102228.94;5058897;28;20056;-73
2021/04/01 13:06:22;;;;;;;12.23;3.53;;;;;;;22.09;35.83;102230.84;5059090;28;20053;-74
2021/04/01 13:09:22;;;;;;;10.30;3.65;;;;;;;22.06;36.74;102246.41;5056464;28;20065;-73
2021/04/01 13:11:50;;;;;;;12.20;3.70;;;;;;;22.01;36.39;102241.63;5053072;28;20450;-73